Agana Heights, GU

6:32 PM ChST on September 03, 2015 (GMT +1000)
Maite | | Change Station
CLOSE
Current Station
Personal Weather Station
Location: Maite, GU
Elevation: 140 ft
Nearby Weather Stations

Elev 140 ft 13.48 °N, 144.76 °E | Updated 6 seconds ago

Light Rain
Light Rain
79.8 °F
Feels Like 85 °F
N
1.0
Wind Variable Wind from SSW
Gusts 2.0 mph

Today
High -- | Low -- °F
--% Chance of Precip.
Yesterday
High -- | Low -- °F
Precip. -- in
6:09 AM 6:31 PM
Waning Gibbous, 72% visible
Pressure 29.83 in
Visibility 10.0 miles
Clouds Few 1800 ft
Mostly Cloudy 5000 ft
Overcast 6500 ft
Heat Index 85 °F
Dew Point 77 °F
Humidity 92%
Rainfall 0.07 in
Snow Depth Not available.
UV 0.0 out of 12
Pollen Not available.
Air Quality Not available.
Flu Activity Not available.
METAR PGUM 030754Z 00000KT 10SM -RA FEW018 BKN050 OVC065 26/25 A2985 RMK AO2 RAB33 SLP101 P0000 T02610250 $
Pressure 29.83 in
Visibility 10.0 miles
Clouds Few 1800 ft
Mostly Cloudy 5000 ft
Overcast 6500 ft
Heat Index 85 °F
Dew Point 77 °F
Humidity 92%
Rainfall 0.07 in
Snow Depth Not available.
UV 0.0 out of 12
Pollen Not available.
Air Quality Not available.
Flu Activity Not available.
METAR PGUM 030754Z 00000KT 10SM -RA FEW018 BKN050 OVC065 26/25 A2985 RMK AO2 RAB33 SLP101 P0000 T02610250 $

10-Day Weather Forecast

×

Almanac

Astronomy

Sep. 03, 2015 Rise Set
Actual Time
Civil Twilight
Nautical Twilight
Astronomical Twilight
Moon
Length of Visible Light
Length of Day
Tomorrow will be .
, % of the Moon is Illuminated

Today's Extremes

State Highs State Lows

Community

WunderPhotos

Upload Photos

1,851,919 photos uploaded!

WunderBlogs® & News

Nearby

Air Quality

  Air Quality AQ Index Pollutant
Not available.

Snow Depth

Station Depth Elevation

Earthquake Activity

City Distance Mag. Time & Date
Minimum magnitude displayed is 2.5.

Coastal Water Temperatures

Place Temperature

Stations

Nearby Weather Stations

Station Location Temp. Windchill Dew Point Humidity Wind Precip. Elev Updated Type